createdAt,value
2022-08-16T00:01:21.931Z,51.50
2022-08-16T00:03:52.504Z,51.83
2022-08-16T00:06:19.225Z,51.98
2022-08-16T00:08:46.397Z,54.54
2022-08-16T00:11:15.290Z,53.56
2022-08-16T00:13:43.535Z,52.19
2022-08-16T00:17:05.459Z,52.42
2022-08-16T00:19:08.390Z,52.19
2022-08-16T00:21:35.547Z,51.76
2022-08-16T00:24:05.063Z,50.69
2022-08-16T00:26:44.099Z,51.28
2022-08-16T00:29:13.346Z,51.55
2022-08-16T00:31:58.621Z,51.15
2022-08-16T00:34:44.088Z,51.71
2022-08-16T00:37:17.334Z,52.08
2022-08-16T00:39:47.186Z,51.98
2022-08-16T00:42:29.608Z,52.25
2022-08-16T00:45:06.279Z,52.58
2022-08-16T00:47:36.055Z,52.44
2022-08-16T00:50:08.753Z,51.61
2022-08-16T00:52:50.458Z,50.64
2022-08-16T00:55:22.327Z,52.39
2022-08-16T00:57:58.761Z,52.07
2022-08-16T01:00:28.940Z,52.36
2022-08-16T01:02:57.381Z,51.78
2022-08-16T01:05:25.690Z,52.01
2022-08-16T01:07:54.581Z,52.50
2022-08-16T01:10:32.653Z,53.04
2022-08-16T01:13:15.232Z,52.59
2022-08-16T01:15:57.684Z,53.55
2022-08-16T01:18:40.190Z,53.96
2022-08-16T01:21:33.270Z,53.48
2022-08-16T01:24:03.458Z,53.67
2022-08-16T01:26:34.383Z,54.75
2022-08-16T01:29:10.126Z,55.43
2022-08-16T01:31:42.637Z,54.77
2022-08-16T01:34:23.256Z,54.63
2022-08-16T01:37:19.743Z,54.30
2022-08-16T01:39:48.240Z,54.17
2022-08-16T01:42:16.171Z,54.10
2022-08-16T01:44:46.889Z,54.33
2022-08-16T01:47:18.998Z,53.64
2022-08-16T01:50:41.760Z,53.80
2022-08-16T01:52:33.326Z,53.90
2022-08-16T01:55:00.024Z,52.95
2022-08-16T01:57:28.002Z,52.69
2022-08-16T01:59:59.048Z,52.72
2022-08-16T02:02:27.031Z,51.92
2022-08-16T02:04:55.218Z,51.32
2022-08-16T02:07:23.503Z,52.11
2022-08-16T02:09:57.287Z,53.45
2022-08-16T02:12:45.827Z,53.18
2022-08-16T02:15:16.611Z,53.34
2022-08-16T02:17:43.425Z,53.83
2022-08-16T02:20:12.439Z,53.52
2022-08-16T02:22:39.523Z,54.20
2022-08-16T02:25:10.898Z,52.70
2022-08-16T02:27:41.061Z,52.17
2022-08-16T02:30:35.964Z,53.61
2022-08-16T02:33:03.163Z,53.69
2022-08-16T02:35:31.089Z,53.64
2022-08-16T02:38:08.633Z,53.58
2022-08-16T02:40:36.668Z,53.99
2022-08-16T02:43:04.578Z,53.97
2022-08-16T02:45:32.035Z,52.98
2022-08-16T02:48:01.029Z,53.67
2022-08-16T02:50:53.976Z,54.01
2022-08-16T02:53:33.602Z,53.78
2022-08-16T02:56:00.644Z,53.60
2022-08-16T02:58:28.008Z,53.76
2022-08-16T03:00:57.627Z,53.81
2022-08-16T03:03:26.162Z,54.25
2022-08-16T03:05:53.581Z,55.59
2022-08-16T03:08:50.213Z,55.21
2022-08-16T03:11:16.870Z,54.36
2022-08-16T03:13:56.757Z,53.79
2022-08-16T03:16:36.541Z,54.43
2022-08-16T03:19:08.533Z,54.63
2022-08-16T03:21:38.143Z,54.96
2022-08-16T03:24:28.282Z,55.07
2022-08-16T03:26:58.084Z,54.60
2022-08-16T03:29:31.507Z,54.58
2022-08-16T03:32:01.442Z,55.76
2022-08-16T03:34:29.801Z,57.67
2022-08-16T03:36:57.092Z,59.07
2022-08-16T03:39:23.868Z,59.23
2022-08-16T03:41:59.228Z,58.79
2022-08-16T03:44:44.293Z,57.43
2022-08-16T03:47:19.103Z,56.92
2022-08-16T03:49:51.505Z,56.25
2022-08-16T03:52:20.622Z,55.17
2022-08-16T03:54:53.567Z,55.22
2022-08-16T03:57:31.436Z,56.76
2022-08-16T04:00:35.042Z,56.76
2022-08-16T04:03:07.711Z,56.14
2022-08-16T04:05:38.455Z,56.53
2022-08-16T04:08:23.758Z,57.51
2022-08-16T04:10:53.543Z,56.99
2022-08-16T04:14:00.063Z,57.63
2022-08-16T04:16:09.633Z,58.92
2022-08-16T04:19:02.151Z,57.94
2022-08-16T04:21:31.919Z,57.02
2022-08-16T04:23:59.454Z,55.51
2022-08-16T04:26:26.249Z,54.14
2022-08-16T04:29:14.733Z,53.14
2022-08-16T04:31:45.125Z,51.63
2022-08-16T04:34:12.460Z,50.54
2022-08-16T04:36:39.761Z,49.81
2022-08-16T04:39:06.582Z,49.13
2022-08-16T04:41:37.353Z,47.95
2022-08-16T04:44:32.771Z,46.60
2022-08-16T04:47:01.473Z,45.66
2022-08-16T04:49:38.692Z,45.29
2022-08-16T04:52:34.549Z,44.72
2022-08-16T04:54:59.419Z,45.40
2022-08-16T04:57:30.080Z,45.06
2022-08-16T04:59:57.411Z,43.30
2022-08-16T05:02:42.107Z,42.26
2022-08-16T05:05:17.179Z,40.32
2022-08-16T05:07:59.544Z,39.06
2022-08-16T05:10:29.513Z,37.90
2022-08-16T05:12:58.566Z,37.15
2022-08-16T05:15:26.552Z,36.44
2022-08-16T05:17:59.147Z,35.61
2022-08-16T05:20:35.559Z,35.04
2022-08-16T05:23:14.997Z,34.85
2022-08-16T05:25:48.490Z,34.08
2022-08-16T05:28:17.517Z,34.08
2022-08-16T05:30:45.297Z,33.81
2022-08-16T05:33:18.284Z,33.22
2022-08-16T05:35:55.682Z,32.56
2022-08-16T05:38:33.334Z,31.21
2022-08-16T05:41:07.012Z,30.39
2022-08-16T05:43:43.341Z,29.53
2022-08-16T05:46:30.211Z,30.20
2022-08-16T05:49:06.084Z,29.30
2022-08-16T05:51:41.461Z,29.35
2022-08-16T05:54:09.743Z,29.84
2022-08-16T05:56:39.429Z,31.47
2022-08-16T05:59:07.616Z,31.51
2022-08-16T06:01:38.330Z,30.83
2022-08-16T06:04:13.324Z,30.89
2022-08-16T06:06:57.415Z,32.10
2022-08-16T06:09:42.851Z,31.04
2022-08-16T06:12:27.429Z,29.99
2022-08-16T06:14:59.297Z,31.54
2022-08-16T06:17:43.164Z,31.63
2022-08-16T06:20:35.975Z,30.71
2022-08-16T06:23:17.111Z,31.03
2022-08-16T06:25:53.322Z,32.37
2022-08-16T06:28:34.997Z,31.36
2022-08-16T06:31:04.847Z,32.21
2022-08-16T06:33:41.800Z,34.33
2022-08-16T06:36:10.564Z,34.19
2022-08-16T06:38:38.798Z,33.03
2022-08-16T06:41:22.267Z,35.01
2022-08-16T06:43:51.365Z,32.44
2022-08-16T06:46:31.898Z,31.62
2022-08-16T06:48:59.596Z,34.32
2022-08-16T06:51:45.157Z,33.53
2022-08-16T06:54:14.193Z,33.79
2022-08-16T06:56:42.713Z,33.32
2022-08-16T06:59:10.853Z,33.80
2022-08-16T07:01:44.921Z,31.78
2022-08-16T07:04:32.772Z,34.27
2022-08-16T07:07:06.087Z,34.56
2022-08-16T07:09:36.322Z,32.94
2022-08-16T07:12:05.739Z,34.42
2022-08-16T07:14:33.908Z,35.72
2022-08-16T07:17:02.203Z,34.17
2022-08-16T07:20:03.649Z,33.72
2022-08-16T07:22:38.359Z,33.31
2022-08-16T07:25:13.000Z,32.94
2022-08-16T07:27:40.926Z,32.52
2022-08-16T07:30:39.174Z,31.37
2022-08-16T07:32:58.390Z,32.68
2022-08-16T07:35:25.679Z,34.86
2022-08-16T07:37:52.919Z,34.52
2022-08-16T07:40:24.895Z,34.80
2022-08-16T07:43:05.152Z,34.07
2022-08-16T07:45:33.794Z,33.50
2022-08-16T07:48:00.589Z,33.05
2022-08-16T07:50:56.393Z,33.37
2022-08-16T07:53:30.295Z,32.68
2022-08-16T07:55:59.405Z,32.89
2022-08-16T07:58:34.649Z,32.92
2022-08-16T08:01:11.024Z,33.62
2022-08-16T08:03:49.110Z,33.76
2022-08-16T08:06:24.903Z,33.63
2022-08-16T08:08:57.148Z,32.14
2022-08-16T08:11:25.097Z,31.58
2022-08-16T08:14:03.108Z,32.55
2022-08-16T08:16:32.807Z,31.19
2022-08-16T08:19:02.247Z,32.03
2022-08-16T08:21:59.746Z,32.04
2022-08-16T08:24:20.071Z,30.77
2022-08-16T08:26:49.778Z,32.45
2022-08-16T08:29:22.635Z,30.08
2022-08-16T08:31:53.036Z,29.58
2022-08-16T08:34:22.303Z,30.21
2022-08-16T08:36:54.370Z,28.41
2022-08-16T08:39:22.242Z,30.33
2022-08-16T08:41:51.242Z,31.19
2022-08-16T08:44:28.835Z,28.81
2022-08-16T08:47:00.592Z,28.89
2022-08-16T08:49:46.814Z,28.13
2022-08-16T08:52:34.683Z,29.25
2022-08-16T08:55:09.084Z,29.66
2022-08-16T08:57:39.545Z,27.51
2022-08-16T09:00:13.518Z,28.49
2022-08-16T09:02:43.133Z,27.93
2022-08-16T09:05:15.576Z,27.56
2022-08-16T09:08:01.164Z,26.94
2022-08-16T09:10:30.687Z,26.42
2022-08-16T09:12:59.185Z,26.23
2022-08-16T09:15:32.642Z,25.72
2022-08-16T09:18:02.137Z,25.11
2022-08-16T09:20:58.356Z,25.67
2022-08-16T09:23:36.726Z,26.20
2022-08-16T09:26:45.290Z,25.72
2022-08-16T09:29:15.313Z,28.73
2022-08-16T09:31:41.263Z,25.44
2022-08-16T09:34:10.575Z,25.11
2022-08-16T09:36:46.208Z,26.35
2022-08-16T09:39:16.314Z,26.03
2022-08-16T09:41:53.687Z,25.12
2022-08-16T09:45:11.323Z,25.88
2022-08-16T09:47:11.439Z,25.71
2022-08-16T09:49:40.799Z,24.87
2022-08-16T09:52:09.822Z,26.04
2022-08-16T09:54:38.108Z,24.67
2022-08-16T09:57:05.408Z,26.36
2022-08-16T09:59:38.695Z,23.91
2022-08-16T10:02:23.029Z,22.74
2022-08-16T10:04:54.443Z,21.64
2022-08-16T10:07:22.498Z,21.46
2022-08-16T10:09:55.018Z,22.46
2022-08-16T10:12:47.047Z,23.53
2022-08-16T10:15:22.892Z,21.46
2022-08-16T10:18:00.716Z,20.96
2022-08-16T10:20:31.515Z,20.60
2022-08-16T10:23:03.618Z,20.49
2022-08-16T10:27:20.844Z,22.03
2022-08-16T10:28:28.833Z,23.02
2022-08-16T10:30:58.826Z,21.50
2022-08-16T10:33:29.787Z,20.77
2022-08-16T10:36:03.947Z,20.25
2022-08-16T10:38:36.533Z,21.87
2022-08-16T10:41:05.259Z,20.56
2022-08-16T10:43:35.447Z,19.10
2022-08-16T10:46:04.058Z,22.24
2022-08-16T10:48:50.771Z,21.68
2022-08-16T10:51:18.879Z,22.51
2022-08-16T10:53:46.413Z,21.12
2022-08-16T10:56:44.242Z,22.56
2022-08-16T11:12:56.718Z,19.98
2022-08-16T11:15:24.509Z,20.88
2022-08-16T11:20:49.282Z,20.95
2022-08-16T11:23:17.688Z,21.57
2022-08-16T11:26:07.381Z,22.06
2022-08-16T11:31:22.132Z,19.44
2022-08-16T11:33:52.780Z,18.72
2022-08-16T11:36:24.847Z,19.62
2022-08-16T11:38:57.709Z,19.72
2022-08-16T11:41:29.457Z,19.41
2022-08-16T11:43:58.307Z,19.70
2022-08-16T11:46:43.501Z,17.42
2022-08-16T11:49:13.935Z,18.92
2022-08-16T11:51:44.412Z,18.97
2022-08-16T11:54:20.452Z,16.54
2022-08-16T11:56:57.085Z,17.59
2022-08-16T11:59:28.632Z,17.77
2022-08-16T12:02:04.163Z,17.58
2022-08-16T12:04:46.053Z,19.46
2022-08-16T12:07:18.834Z,18.66
2022-08-16T12:09:45.992Z,17.33
2022-08-16T12:12:15.652Z,18.19
2022-08-16T12:14:45.787Z,18.61
2022-08-16T12:17:13.695Z,17.48
2022-08-16T12:19:42.635Z,21.41
2022-08-16T12:22:19.381Z,17.07
2022-08-16T12:24:52.059Z,16.20
2022-08-16T12:27:24.273Z,16.95
2022-08-16T12:29:54.714Z,16.60
2022-08-16T12:32:35.977Z,20.12
2022-08-16T12:35:08.693Z,17.84
2022-08-16T12:37:35.811Z,18.01
2022-08-16T12:40:02.866Z,17.85
2022-08-16T12:42:35.357Z,19.69
2022-08-16T12:45:05.271Z,17.53
2022-08-16T12:47:50.547Z,17.66
2022-08-16T12:50:18.653Z,17.21
2022-08-16T12:52:53.049Z,18.05
2022-08-16T12:55:20.871Z,18.95
2022-08-16T12:57:58.721Z,18.70
2022-08-16T13:00:33.666Z,17.74
2022-08-16T13:03:03.294Z,17.44
2022-08-16T13:08:03.696Z,16.50
2022-08-16T13:10:38.134Z,16.73
2022-08-16T13:13:09.284Z,17.64
2022-08-16T13:15:51.809Z,19.05
2022-08-16T13:18:32.660Z,17.40
2022-08-16T13:21:05.815Z,17.92
2022-08-16T13:23:34.175Z,15.83
2022-08-16T13:26:04.238Z,15.85
2022-08-16T13:28:31.211Z,16.93
2022-08-16T13:30:59.201Z,17.42
2022-08-16T13:33:30.687Z,16.71
2022-08-16T13:36:01.256Z,18.72
2022-08-16T13:38:31.333Z,19.30
2022-08-16T13:41:09.474Z,18.00
2022-08-16T13:43:38.264Z,18.73
2022-08-16T13:46:06.823Z,18.17
2022-08-16T13:48:42.826Z,17.15
2022-08-16T13:51:17.788Z,15.77
2022-08-16T13:53:59.616Z,16.87
2022-08-16T13:56:36.008Z,17.99
2022-08-16T13:59:06.256Z,17.43
2022-08-16T14:01:42.510Z,16.83
2022-08-16T14:04:19.030Z,16.50
2022-08-16T14:06:53.117Z,16.39
2022-08-16T14:09:20.431Z,16.37
2022-08-16T14:11:47.323Z,15.62
2022-08-16T14:14:17.035Z,15.17
2022-08-16T14:16:45.349Z,15.56
2022-08-16T14:19:18.285Z,15.31
2022-08-16T14:21:56.630Z,15.85
2022-08-16T14:24:30.101Z,15.86
2022-08-16T14:26:57.954Z,15.95
2022-08-16T14:29:28.519Z,16.93
2022-08-16T14:31:59.559Z,17.48
2022-08-16T14:34:26.895Z,19.30
2022-08-16T14:36:56.872Z,20.11
2022-08-16T14:39:23.918Z,20.35
2022-08-16T14:41:53.804Z,24.18
2022-08-16T14:44:23.491Z,23.19
2022-08-16T14:46:50.244Z,26.59
2022-08-16T14:49:19.688Z,28.99
2022-08-16T14:51:48.919Z,33.35
2022-08-16T14:54:15.921Z,37.58
2022-08-16T14:56:46.881Z,36.31
2022-08-16T14:59:23.198Z,38.21
2022-08-16T15:01:59.790Z,43.42
2022-08-16T15:04:39.724Z,41.95
2022-08-16T15:07:10.884Z,49.69
2022-08-16T15:09:44.667Z,47.60
2022-08-16T15:12:31.242Z,48.83
2022-08-16T15:15:00.901Z,42.82
2022-08-16T15:17:33.963Z,48.46
2022-08-16T15:20:09.134Z,48.89
2022-08-16T15:22:42.607Z,48.79
2022-08-16T15:25:19.059Z,52.10
2022-08-16T15:27:55.431Z,54.41
2022-08-16T15:30:59.166Z,49.13
2022-08-16T15:33:16.581Z,53.26
2022-08-16T15:35:44.372Z,54.74
2022-08-16T15:38:58.011Z,56.04
2022-08-16T15:40:59.407Z,54.86
2022-08-16T15:43:33.986Z,55.47
2022-08-16T15:46:35.113Z,55.20
2022-08-16T15:49:11.965Z,54.24
2022-08-16T15:51:39.404Z,53.22
2022-08-16T15:54:21.007Z,54.14
2022-08-16T15:56:56.133Z,53.74
2022-08-16T15:59:27.466Z,55.33
2022-08-16T16:02:02.005Z,53.51
2022-08-16T16:04:28.764Z,54.55
2022-08-16T16:06:56.821Z,53.51
2022-08-16T16:09:36.947Z,53.17
2022-08-16T16:12:41.479Z,52.72
2022-08-16T16:14:53.729Z,52.37
2022-08-16T16:17:20.541Z,52.08
2022-08-16T16:19:49.755Z,53.42
2022-08-16T16:22:21.818Z,49.44
2022-08-16T16:24:52.396Z,52.81
2022-08-16T16:27:19.190Z,53.71
2022-08-16T16:29:57.783Z,52.34
2022-08-16T16:32:34.206Z,53.60
2022-08-16T16:35:02.961Z,57.92
2022-08-16T16:37:31.309Z,55.64
2022-08-16T16:39:59.697Z,55.05
2022-08-16T16:42:30.002Z,54.09
2022-08-16T16:45:01.508Z,54.11
2022-08-16T16:47:48.314Z,55.97
2022-08-16T16:50:17.060Z,56.10
2022-08-16T16:52:45.551Z,57.94
2022-08-16T16:55:14.894Z,54.48
2022-08-16T16:58:03.389Z,56.07
2022-08-16T17:00:38.293Z,55.85
2022-08-16T17:03:06.266Z,57.87
2022-08-16T17:05:56.883Z,56.63
2022-08-16T17:08:30.068Z,53.16
2022-08-16T17:10:57.814Z,49.34
2022-08-16T17:13:25.195Z,45.82
2022-08-16T17:15:53.933Z,47.53
2022-08-16T17:19:15.002Z,47.93
2022-08-16T17:21:10.099Z,45.90
2022-08-16T17:23:58.897Z,43.57
2022-08-16T17:26:29.819Z,42.67
2022-08-16T17:29:02.721Z,42.79
2022-08-16T17:31:41.073Z,43.05
2022-08-16T17:34:29.203Z,43.39
2022-08-16T17:36:59.584Z,42.16
2022-08-16T17:39:29.667Z,42.50
2022-08-16T17:41:58.141Z,42.33
2022-08-16T17:44:25.617Z,44.15
2022-08-16T17:46:53.206Z,48.80
2022-08-16T17:49:21.152Z,47.29
2022-08-16T17:51:48.718Z,53.13
2022-08-16T17:54:16.952Z,52.75
2022-08-16T17:57:00.479Z,52.84
2022-08-16T17:59:29.109Z,53.98
2022-08-16T18:01:56.472Z,54.47
2022-08-16T18:04:48.416Z,55.96
2022-08-16T18:07:11.372Z,60.19
2022-08-16T18:09:40.790Z,57.62
2022-08-16T18:12:44.980Z,58.10
2022-08-16T18:15:06.674Z,56.72
2022-08-16T18:17:33.617Z,55.98
2022-08-16T18:20:00.921Z,56.68
2022-08-16T18:22:30.933Z,59.32
2022-08-16T18:24:58.327Z,58.10
2022-08-16T18:27:27.241Z,59.29
2022-08-16T18:29:54.875Z,59.03
2022-08-16T18:32:24.583Z,58.43
2022-08-16T18:34:54.908Z,60.36
2022-08-16T18:37:23.909Z,59.39
2022-08-16T18:39:51.408Z,59.65
2022-08-16T18:42:19.091Z,59.76
2022-08-16T18:44:46.661Z,59.53
2022-08-16T18:47:14.060Z,60.45
2022-08-16T18:49:41.817Z,60.32
2022-08-16T18:52:14.356Z,60.78
2022-08-16T18:55:02.032Z,60.02
2022-08-16T18:57:37.324Z,60.27
2022-08-16T19:00:07.303Z,59.95
2022-08-16T19:02:56.976Z,60.33
2022-08-16T19:05:26.308Z,61.00
2022-08-16T19:07:53.817Z,61.83
2022-08-16T19:10:24.300Z,61.72
2022-08-16T19:12:51.616Z,62.67
2022-08-16T19:15:23.417Z,62.35
2022-08-16T19:17:51.210Z,62.59
2022-08-16T19:20:21.440Z,62.51
2022-08-16T19:23:10.564Z,62.61
2022-08-16T19:25:49.044Z,62.33
2022-08-16T19:28:51.602Z,62.18
2022-08-16T19:31:31.513Z,62.10
2022-08-16T19:33:59.345Z,62.61
2022-08-16T19:36:35.259Z,62.68
2022-08-16T19:39:09.665Z,62.15
2022-08-16T19:41:45.982Z,62.11
2022-08-16T19:44:13.794Z,61.86
2022-08-16T19:46:46.841Z,61.91
2022-08-16T19:49:15.893Z,61.00
2022-08-16T19:51:48.411Z,60.27
2022-08-16T19:54:15.791Z,59.58
2022-08-16T19:56:43.097Z,59.35
2022-08-16T19:59:19.804Z,60.51
2022-08-16T20:01:54.097Z,60.96
2022-08-16T20:04:23.039Z,61.08
2022-08-16T20:06:52.515Z,61.06
2022-08-16T20:09:21.314Z,61.16
2022-08-16T20:11:49.842Z,61.50
2022-08-16T20:14:24.324Z,62.78
2022-08-16T20:16:54.987Z,62.79
2022-08-16T20:19:22.402Z,63.25
2022-08-16T20:21:50.286Z,63.21
2022-08-16T20:24:35.675Z,63.55
2022-08-16T20:27:06.518Z,63.76
2022-08-16T20:29:34.487Z,63.97
2022-08-16T20:32:02.271Z,63.93
2022-08-16T20:34:29.508Z,63.28
2022-08-16T20:36:56.691Z,62.66
2022-08-16T20:39:24.384Z,62.08
2022-08-16T20:41:51.990Z,61.96
2022-08-16T20:44:22.867Z,61.45
2022-08-16T20:46:52.213Z,60.69
2022-08-16T20:49:19.212Z,60.86
2022-08-16T20:51:49.568Z,60.78
2022-08-16T20:54:18.530Z,60.88
2022-08-16T20:56:45.381Z,60.63
2022-08-16T20:59:12.319Z,60.20
2022-08-16T21:01:45.577Z,59.81
2022-08-16T21:04:16.737Z,59.40
2022-08-16T21:06:53.170Z,60.48
2022-08-16T21:09:23.369Z,61.15
2022-08-16T21:11:53.067Z,60.95
2022-08-16T21:14:20.037Z,60.30
2022-08-16T21:16:46.814Z,59.32
2022-08-16T21:19:13.719Z,58.92
2022-08-16T21:21:40.646Z,59.34
2022-08-16T21:24:07.939Z,59.01
2022-08-16T21:26:38.977Z,59.04
2022-08-16T21:29:07.723Z,59.95
2022-08-16T21:31:40.453Z,60.01
2022-08-16T21:34:08.399Z,59.25
2022-08-16T21:36:36.542Z,59.08
2022-08-16T21:39:06.210Z,58.86
2022-08-16T21:41:33.201Z,58.34
2022-08-16T21:43:59.987Z,57.96
2022-08-16T21:46:27.029Z,57.79
2022-08-16T21:48:53.813Z,58.39
2022-08-16T21:51:20.746Z,57.99
2022-08-16T21:53:47.822Z,58.55
2022-08-16T21:56:16.579Z,57.97
2022-08-16T21:58:44.147Z,57.94
2022-08-16T22:01:11.324Z,58.42
2022-08-16T22:03:38.362Z,58.72
2022-08-16T22:06:12.928Z,58.78
2022-08-16T22:08:50.500Z,59.10
2022-08-16T22:11:24.327Z,58.68
2022-08-16T22:13:58.156Z,58.17
2022-08-16T22:16:32.297Z,58.98
2022-08-16T22:19:00.011Z,59.77
2022-08-16T22:21:27.469Z,59.32
2022-08-16T22:23:57.870Z,58.67
2022-08-16T22:26:30.142Z,59.20
2022-08-16T22:29:39.522Z,58.78
2022-08-16T22:32:09.602Z,58.07
2022-08-16T22:34:36.512Z,59.10
2022-08-16T22:37:03.501Z,58.50
2022-08-16T22:39:30.404Z,59.37
2022-08-16T22:41:57.288Z,60.32
2022-08-16T22:44:24.720Z,60.61
2022-08-16T22:46:51.397Z,60.70
2022-08-16T22:49:18.086Z,61.31
2022-08-16T22:51:45.020Z,61.09
2022-08-16T22:54:43.986Z,61.68
2022-08-16T22:56:59.001Z,61.47
2022-08-16T22:59:25.775Z,61.96
2022-08-16T23:01:53.691Z,62.04
2022-08-16T23:04:20.740Z,61.86
2022-08-16T23:06:47.787Z,61.44
2022-08-16T23:09:14.705Z,61.03
2022-08-16T23:11:41.434Z,62.18
2022-08-16T23:14:08.504Z,61.57
2022-08-16T23:16:35.472Z,62.27
2022-08-16T23:19:05.506Z,62.31
2022-08-16T23:21:32.765Z,61.42
2022-08-16T23:23:59.679Z,61.01
2022-08-16T23:26:43.755Z,60.35
2022-08-16T23:29:22.246Z,60.53
2022-08-16T23:31:59.029Z,59.99
2022-08-16T23:34:28.315Z,60.65
2022-08-16T23:36:55.522Z,60.74
2022-08-16T23:39:22.666Z,60.51
2022-08-16T23:41:49.500Z,60.54
2022-08-16T23:44:56.519Z,60.08
2022-08-16T23:47:03.059Z,60.01
2022-08-16T23:49:57.666Z,59.45
2022-08-16T23:52:18.701Z,59.17
2022-08-16T23:55:05.981Z,58.93
2022-08-16T23:57:33.273Z,59.10
